Time;durP1;ratioP1;P1;durP2;ratioP2;P2;SDS_P1;SDS_P2;PMS_P1;PMS_P2;Temp;Humidity;BMP_temperature;BMP_pressure;BME280_temperature;BME280_humidity;BME280_pressure;Samples;Min_cycle;Max_cycle;Signal;HPM_P1;HPM_P2
2023/04/11 00:01:31;;;;;;;4.37;3.97;;;9.60;99.90;;;;;;5074944;28;20458;-69
2023/04/11 00:03:58;;;;;;;5.23;4.00;;;9.70;99.90;;;;;;5080958;28;20470;-69
2023/04/11 00:06:26;;;;;;;4.37;4.07;;;9.70;99.90;;;;;;5080813;28;20511;-68
2023/04/11 00:08:55;;;;;;;3.60;3.40;;;9.70;99.90;;;;;;5076671;28;20458;-68
2023/04/11 00:11:22;;;;;;;3.63;3.53;;;9.80;99.90;;;;;;5075445;28;20457;-69
2023/04/11 00:13:49;;;;;;;6.10;4.03;;;9.80;99.90;;;;;;5074048;28;20491;-69
2023/04/11 00:16:18;;;;;;;3.33;3.03;;;9.90;99.90;;;;;;5077254;28;20457;-69
2023/04/11 00:18:46;;;;;;;3.57;3.37;;;9.90;99.90;;;;;;5076284;28;20451;-69
2023/04/11 00:21:13;;;;;;;8.47;3.30;;;9.90;99.90;;;;;;5081675;28;20469;-69
2023/04/11 00:23:39;;;;;;;3.53;3.30;;;9.90;99.90;;;;;;5074078;28;20532;-69
2023/04/11 00:26:08;;;;;;;4.33;4.03;;;9.90;99.90;;;;;;5078436;28;20474;-69
2023/04/11 00:28:36;;;;;;;7.80;4.27;;;9.90;99.90;;;;;;5081031;28;20512;-68
2023/04/11 00:31:02;;;;;;;7.17;6.47;;;9.80;99.90;;;;;;5070382;28;20470;-69
2023/04/11 00:33:30;;;;;;;4.60;4.27;;;9.80;99.90;;;;;;5074066;28;20493;-68
2023/04/11 00:35:57;;;;;;;8.37;4.17;;;9.80;99.90;;;;;;5076765;28;20471;-68
2023/04/11 00:38:24;;;;;;;4.93;4.47;;;9.90;99.90;;;;;;5072106;28;20829;-69
2023/04/11 00:40:51;;;;;;;6.53;5.10;;;9.90;99.90;;;;;;5077735;28;20516;-68
2023/04/11 00:43:19;;;;;;;4.40;4.10;;;9.80;99.90;;;;;;5079902;28;20458;-69
2023/04/11 00:45:46;;;;;;;9.03;4.17;;;9.80;99.90;;;;;;5071199;28;20455;-69
2023/04/11 00:48:13;;;;;;;5.43;4.97;;;9.80;99.90;;;;;;5088946;28;20585;-69
2023/04/11 00:50:41;;;;;;;11.67;5.10;;;9.80;99.90;;;;;;5096055;28;20824;-69
2023/04/11 00:53:10;;;;;;;5.30;4.80;;;9.90;99.90;;;;;;5101127;28;20485;-69
2023/04/11 00:55:37;;;;;;;6.63;4.80;;;9.90;99.90;;;;;;5098036;28;20867;-69
2023/04/11 00:58:06;;;;;;;9.70;5.83;;;9.90;99.90;;;;;;5103589;28;20453;-69
2023/04/11 01:00:37;;;;;;;5.40;5.00;;;9.90;99.90;;;;;;5094443;28;20458;-69
2023/04/11 01:03:04;;;;;;;5.30;5.00;;;9.90;99.90;;;;;;5081147;28;20457;-68
2023/04/11 01:05:33;;;;;;;4.53;4.40;;;9.90;99.90;;;;;;5092705;28;20489;-69
2023/04/11 01:08:00;;;;;;;5.77;5.40;;;9.90;99.90;;;;;;5098279;28;20446;-68
2023/04/11 01:10:29;;;;;;;6.67;5.87;;;9.90;99.90;;;;;;5097450;28;20492;-69
2023/04/11 01:12:59;;;;;;;6.70;6.20;;;9.90;99.90;;;;;;5094133;28;20493;-68
2023/04/11 01:15:26;;;;;;;6.33;6.03;;;9.90;99.90;;;;;;5099446;28;20458;-70
2023/04/11 01:17:54;;;;;;;6.03;5.73;;;9.90;99.90;;;;;;5088441;28;20458;-69
2023/04/11 01:20:21;;;;;;;6.90;6.23;;;10.00;99.90;;;;;;5102860;28;20799;-69
2023/04/11 01:22:49;;;;;;;22.83;5.97;;;10.00;99.90;;;;;;5092689;28;20744;-69
2023/04/11 01:25:20;;;;;;;12.47;6.47;;;10.00;99.90;;;;;;5097720;28;20462;-69
2023/04/11 01:27:47;;;;;;;17.10;9.03;;;10.00;99.90;;;;;;5103676;28;20457;-69
2023/04/11 01:30:14;;;;;;;36.17;9.23;;;10.00;99.90;;;;;;5092967;28;20545;-69
2023/04/11 01:32:40;;;;;;;9.00;7.90;;;9.90;99.90;;;;;;5107869;28;20581;-69
2023/04/11 01:35:10;;;;;;;9.73;8.90;;;9.90;99.90;;;;;;5099442;28;21011;-69
2023/04/11 01:37:38;;;;;;;7.83;7.10;;;9.90;99.90;;;;;;5095695;28;20742;-69
2023/04/11 01:40:06;;;;;;;10.40;6.10;;;9.80;99.90;;;;;;5109299;28;20500;-69
2023/04/11 01:42:35;;;;;;;5.80;5.43;;;9.80;99.90;;;;;;5107247;28;20464;-69
2023/04/11 01:45:04;;;;;;;42.73;7.30;;;9.70;99.90;;;;;;5093146;28;20462;-69
2023/04/11 01:47:31;;;;;;;7.50;6.80;;;9.70;99.90;;;;;;5102563;28;21099;-69
2023/04/11 01:49:59;;;;;;;14.00;6.60;;;9.70;99.90;;;;;;5103128;28;20465;-68
2023/04/11 01:52:25;;;;;;;16.33;7.87;;;9.70;99.90;;;;;;5086979;28;20480;-69
2023/04/11 01:54:52;;;;;;;6.23;5.83;;;9.70;99.90;;;;;;5091132;28;20864;-69
2023/04/11 01:57:19;;;;;;;6.90;6.50;;;9.70;99.90;;;;;;5100625;28;20464;-69
2023/04/11 01:59:47;;;;;;;10.23;6.90;;;9.70;99.90;;;;;;5097613;28;20519;-69
2023/04/11 02:02:14;;;;;;;6.70;6.17;;;9.70;99.90;;;;;;5097373;28;20480;-69
2023/04/11 02:04:41;;;;;;;6.53;6.00;;;9.70;99.90;;;;;;5097380;28;20458;-69
2023/04/11 02:07:07;;;;;;;6.50;5.90;;;9.50;99.90;;;;;;5097324;28;20453;-69
2023/04/11 02:09:35;;;;;;;7.73;7.23;;;9.50;99.90;;;;;;5102415;28;20854;-70
2023/04/11 02:12:03;;;;;;;9.20;8.00;;;9.40;99.90;;;;;;5090295;28;20458;-69
2023/04/11 02:14:40;;;;;;;8.30;7.00;;;9.30;99.90;;;;;;5103110;28;20488;-69
2023/04/11 02:17:09;;;;;;;24.17;6.80;;;9.20;99.90;;;;;;5089866;28;20544;-69
2023/04/11 02:19:37;;;;;;;7.13;6.43;;;9.10;99.90;;;;;;5095886;28;20545;-70
2023/04/11 02:22:04;;;;;;;6.10;5.60;;;9.10;99.90;;;;;;5100076;28;20524;-70
2023/04/11 02:24:31;;;;;;;6.80;5.67;;;9.10;99.90;;;;;;5093788;28;20547;-69
2023/04/11 02:26:59;;;;;;;6.30;5.90;;;9.00;99.90;;;;;;5099017;28;20461;-70
2023/04/11 02:29:26;;;;;;;22.87;8.07;;;8.90;99.90;;;;;;5103350;28;20467;-69
2023/04/11 02:31:53;;;;;;;6.80;6.20;;;8.90;99.90;;;;;;5097510;28;20527;-70
2023/04/11 02:34:21;;;;;;;5.50;5.20;;;8.80;99.90;;;;;;5102967;28;20505;-69
2023/04/11 02:36:48;;;;;;;14.77;6.30;;;8.80;99.90;;;;;;5089634;28;20830;-70
2023/04/11 02:39:15;;;;;;;6.27;5.60;;;8.80;99.90;;;;;;5097369;28;20909;-69
2023/04/11 02:41:43;;;;;;;8.50;6.00;;;8.80;99.90;;;;;;5092498;28;20512;-70
2023/04/11 02:44:11;;;;;;;8.20;6.10;;;8.80;99.90;;;;;;5098091;28;20591;-69
2023/04/11 02:46:38;;;;;;;5.87;5.37;;;8.90;99.90;;;;;;5084078;28;20494;-69
2023/04/11 02:49:06;;;;;;;4.83;4.63;;;8.90;99.90;;;;;;5067479;28;20825;-70
2023/04/11 02:51:35;;;;;;;5.30;5.10;;;8.90;99.90;;;;;;5086995;28;20465;-70
2023/04/11 02:54:01;;;;;;;8.63;6.50;;;8.80;99.90;;;;;;5075956;28;21005;-70
2023/04/11 02:56:29;;;;;;;6.83;6.10;;;8.80;99.90;;;;;;5078752;28;20515;-70
2023/04/11 02:58:56;;;;;;;16.37;6.50;;;8.80;99.90;;;;;;5076199;28;20474;-70
2023/04/11 03:01:24;;;;;;;9.87;5.93;;;8.70;99.90;;;;;;5076019;28;20458;-69
2023/04/11 03:03:51;;;;;;;11.83;6.10;;;8.60;99.90;;;;;;5078518;28;20560;-70
2023/04/11 03:06:18;;;;;;;4.67;4.37;;;8.60;99.90;;;;;;5074454;28;20463;-70
2023/04/11 03:08:46;;;;;;;5.43;4.80;;;8.50;99.90;;;;;;5080656;28;20823;-69
2023/04/11 03:11:14;;;;;;;15.37;5.70;;;8.60;99.90;;;;;;5082894;28;20956;-69
2023/04/11 03:13:41;;;;;;;6.33;5.77;;;8.50;99.90;;;;;;5075214;28;21093;-69
2023/04/11 03:16:08;;;;;;;3.77;3.67;;;8.50;99.90;;;;;;5087504;28;20466;-69
2023/04/11 03:18:35;;;;;;;24.83;6.13;;;8.60;99.90;;;;;;5083721;28;20454;-69
2023/04/11 03:21:02;;;;;;;15.90;6.40;;;8.50;99.90;;;;;;5075907;28;20465;-70
2023/04/11 03:23:30;;;;;;;5.73;4.30;;;8.60;99.90;;;;;;5075787;28;20862;-69
2023/04/11 03:25:59;;;;;;;10.60;6.43;;;8.50;99.90;;;;;;5077870;28;20819;-70
2023/04/11 03:28:26;;;;;;;7.00;4.73;;;8.50;99.90;;;;;;5080438;28;20484;-70
2023/04/11 03:30:54;;;;;;;5.23;4.83;;;8.50;99.90;;;;;;5067171;28;20458;-68
2023/04/11 03:33:21;;;;;;;4.87;4.67;;;8.50;99.90;;;;;;5070834;28;20530;-70
2023/04/11 03:35:48;;;;;;;27.07;5.83;;;8.50;99.90;;;;;;5076279;28;20471;-68
2023/04/11 03:38:15;;;;;;;5.47;5.07;;;8.70;99.90;;;;;;5084774;28;21298;-70
2023/04/11 03:40:42;;;;;;;11.37;9.10;;;8.70;99.90;;;;;;5081716;28;20976;-70
2023/04/11 03:43:10;;;;;;;8.70;6.10;;;8.70;99.90;;;;;;5069859;28;20489;-69
2023/04/11 03:45:37;;;;;;;9.33;5.50;;;8.80;99.90;;;;;;5074424;28;20485;-70
2023/04/11 03:48:04;;;;;;;5.73;5.53;;;8.80;99.90;;;;;;5081297;28;20833;-69
2023/04/11 03:50:31;;;;;;;9.07;6.57;;;8.90;99.90;;;;;;5074912;28;20467;-70
2023/04/11 03:52:58;;;;;;;7.93;7.20;;;8.90;99.90;;;;;;5075031;28;20720;-69
2023/04/11 03:55:25;;;;;;;7.67;6.10;;;8.90;99.90;;;;;;5076006;28;20467;-69
2023/04/11 03:57:52;;;;;;;12.83;6.63;;;8.90;99.90;;;;;;5080359;28;20561;-69
2023/04/11 04:00:21;;;;;;;6.90;6.60;;;8.90;99.90;;;;;;5070435;28;20509;-69
2023/04/11 04:02:48;;;;;;;11.70;10.67;;;8.90;99.90;;;;;;5074611;28;20465;-69
2023/04/11 04:05:15;;;;;;;12.53;11.10;;;8.90;99.90;;;;;;5077155;28;20471;-69
2023/04/11 04:07:42;;;;;;;10.30;9.70;;;8.80;99.90;;;;;;5081296;28;20467;-69
2023/04/11 04:10:09;;;;;;;14.17;12.73;;;8.70;99.90;;;;;;5067973;28;20791;-69
2023/04/11 04:12:35;;;;;;;17.27;16.17;;;8.60;99.90;;;;;;5077339;28;20466;-69
2023/04/11 04:15:03;;;;;;;16.70;15.70;;;8.50;99.90;;;;;;5080896;28;20555;-69
2023/04/11 04:17:31;;;;;;;18.73;16.80;;;8.50;99.90;;;;;;5064186;28;20531;-68
2023/04/11 04:19:57;;;;;;;17.67;16.03;;;8.40;99.90;;;;;;5064565;28;20463;-69
2023/04/11 04:22:25;;;;;;;17.70;16.10;;;8.40;99.90;;;;;;5071888;28;20712;-69
2023/04/11 04:24:52;;;;;;;17.03;15.73;;;8.30;99.90;;;;;;5067467;28;20467;-69
2023/04/11 04:27:19;;;;;;;14.83;14.13;;;8.30;99.90;;;;;;5070897;28;21009;-69
2023/04/11 04:29:46;;;;;;;15.63;14.20;;;8.30;99.90;;;;;;5081164;28;20780;-69
2023/04/11 04:32:19;;;;;;;21.33;15.90;;;8.30;99.90;;;;;;5083058;28;20576;-70
2023/04/11 04:34:49;;;;;;;14.53;13.60;;;8.30;99.90;;;;;;5075820;28;20502;-69
2023/04/11 04:37:21;;;;;;;13.10;12.60;;;8.20;99.90;;;;;;5074239;28;20666;-69
2023/04/11 04:39:52;;;;;;;15.43;13.70;;;8.20;99.90;;;;;;5064869;28;21226;-68
2023/04/11 04:42:21;;;;;;;12.87;12.00;;;8.20;99.90;;;;;;5071337;28;20756;-69
2023/04/11 04:44:49;;;;;;;13.17;12.23;;;8.10;99.90;;;;;;5067111;28;20473;-69
2023/04/11 04:47:15;;;;;;;10.27;9.60;;;8.10;99.90;;;;;;5081613;28;20493;-69
2023/04/11 04:49:43;;;;;;;13.93;10.60;;;8.10;99.90;;;;;;5119594;28;20508;-68
2023/04/11 04:52:13;;;;;;;10.40;9.33;;;8.20;99.90;;;;;;5114422;28;20460;-69
2023/04/11 04:54:40;;;;;;;10.23;9.57;;;8.20;99.90;;;;;;5115185;28;20484;-69
2023/04/11 04:57:07;;;;;;;9.93;8.97;;;8.20;99.90;;;;;;5108952;28;21435;-68
2023/04/11 04:59:34;;;;;;;7.80;7.50;;;8.10;99.90;;;;;;5112854;28;20452;-69
2023/04/11 05:02:01;;;;;;;8.40;7.80;;;8.10;99.90;;;;;;5113125;27;20457;-70
2023/04/11 05:04:30;;;;;;;10.03;8.20;;;8.10;99.90;;;;;;5125472;27;21337;-69
2023/04/11 05:06:57;;;;;;;7.27;6.97;;;8.10;99.90;;;;;;5118627;27;20453;-69
2023/04/11 05:09:26;;;;;;;7.83;7.17;;;8.10;99.90;;;;;;5118442;27;20455;-69
2023/04/11 05:11:53;;;;;;;17.33;7.63;;;8.10;99.90;;;;;;5119806;27;20975;-69
2023/04/11 05:14:19;;;;;;;15.67;6.70;;;8.20;99.90;;;;;;5117233;27;20496;-69
2023/04/11 05:16:46;;;;;;;7.67;6.90;;;8.20;99.90;;;;;;5109122;27;20502;-69
2023/04/11 05:19:13;;;;;;;5.37;5.10;;;8.20;99.90;;;;;;5112826;27;20456;-69
2023/04/11 05:21:40;;;;;;;13.50;6.10;;;8.20;99.90;;;;;;5123351;27;20461;-69
2023/04/11 05:24:07;;;;;;;11.27;7.10;;;8.30;99.90;;;;;;5123104;27;20465;-69
2023/04/11 05:26:36;;;;;;;8.60;6.20;;;8.30;99.90;;;;;;5112956;27;20528;-69
2023/04/11 05:29:02;;;;;;;8.43;6.20;;;8.30;99.90;;;;;;5112587;27;20457;-69
2023/04/11 05:31:29;;;;;;;6.83;6.23;;;8.30;99.90;;;;;;5117159;27;20457;-69
2023/04/11 05:33:57;;;;;;;10.40;7.43;;;8.30;99.90;;;;;;5113894;27;20479;-69
2023/04/11 05:36:25;;;;;;;9.93;6.90;;;8.40;99.90;;;;;;5112534;27;20499;-70
2023/04/11 05:38:53;;;;;;;8.63;7.97;;;8.40;99.90;;;;;;5115384;27;20793;-69
2023/04/11 05:41:20;;;;;;;8.20;7.60;;;8.40;99.90;;;;;;5122269;27;20464;-69
2023/04/11 05:43:49;;;;;;;18.27;8.83;;;8.50;99.90;;;;;;5124535;27;20970;-69
2023/04/11 05:46:17;;;;;;;9.27;8.20;;;8.50;99.90;;;;;;5111605;27;20859;-68
2023/04/11 05:48:44;;;;;;;10.07;9.10;;;8.50;99.90;;;;;;5120357;27;20464;-69
2023/04/11 05:51:11;;;;;;;8.63;7.93;;;8.50;99.90;;;;;;5109513;27;20468;-69
2023/04/11 05:53:37;;;;;;;8.63;8.03;;;8.40;99.90;;;;;;5115226;27;20462;-69
2023/04/11 05:56:04;;;;;;;9.43;8.77;;;8.40;99.90;;;;;;5100549;28;20482;-69
2023/04/11 05:58:32;;;;;;;8.77;8.27;;;8.50;99.90;;;;;;5112532;27;20464;-69
2023/04/11 06:01:01;;;;;;;13.07;12.07;;;8.50;99.90;;;;;;5112896;27;20457;-69
2023/04/11 06:03:28;;;;;;;10.63;10.07;;;8.50;99.90;;;;;;5103965;27;20457;-69
2023/04/11 06:05:56;;;;;;;9.43;8.93;;;8.50;99.90;;;;;;5118758;27;20639;-69
2023/04/11 06:08:22;;;;;;;9.77;9.27;;;8.50;99.90;;;;;;5118597;27;20464;-69
2023/04/11 06:10:49;;;;;;;13.03;11.07;;;8.60;99.90;;;;;;5111856;27;20453;-69
2023/04/11 06:13:16;;;;;;;10.80;9.87;;;8.70;99.90;;;;;;5114210;27;20506;-69
2023/04/11 06:15:43;;;;;;;12.73;11.60;;;8.80;99.90;;;;;;5116722;27;20460;-69
2023/04/11 06:18:11;;;;;;;9.63;9.23;;;8.90;99.90;;;;;;5113323;27;20449;-69
2023/04/11 06:20:38;;;;;;;11.77;10.87;;;8.90;99.90;;;;;;5119366;27;21011;-69
2023/04/11 06:23:06;;;;;;;11.30;10.60;;;9.00;99.90;;;;;;5113242;27;20464;-69
2023/04/11 06:25:32;;;;;;;10.10;9.40;;;9.00;99.90;;;;;;5109835;28;20842;-69
2023/04/11 06:28:00;;;;;;;13.27;10.43;;;8.90;99.90;;;;;;5109918;27;20465;-68
2023/04/11 06:30:28;;;;;;;11.93;10.70;;;9.00;99.90;;;;;;5113725;27;20510;-68
2023/04/11 06:32:56;;;;;;;9.67;9.27;;;9.00;99.90;;;;;;5123734;27;20463;-69
2023/04/11 06:35:26;;;;;;;10.70;10.10;;;9.10;99.90;;;;;;5113037;27;20510;-68
2023/04/11 06:37:53;;;;;;;11.13;10.20;;;9.10;99.90;;;;;;5112974;27;20468;-69
2023/04/11 06:40:20;;;;;;;9.87;9.47;;;8.90;99.90;;;;;;5123274;27;20885;-69
2023/04/11 06:42:47;;;;;;;10.50;10.00;;;8.90;99.90;;;;;;5123125;27;20824;-69
2023/04/11 06:45:14;;;;;;;11.70;10.70;;;8.80;99.90;;;;;;5111315;27;20842;-69
2023/04/11 06:47:41;;;;;;;10.97;10.47;;;8.70;99.90;;;;;;5118077;27;20487;-69
2023/04/11 06:50:08;;;;;;;11.20;10.07;;;8.80;99.90;;;;;;5119507;27;20475;-68
2023/04/11 06:52:37;;;;;;;10.67;10.10;;;8.90;99.90;;;;;;5113758;27;20452;-69
2023/04/11 06:55:05;;;;;;;11.63;10.83;;;9.00;99.90;;;;;;5120158;27;20464;-69
2023/04/11 06:57:32;;;;;;;11.63;10.73;;;9.00;99.90;;;;;;5123575;27;20456;-69
2023/04/11 07:00:00;;;;;;;11.37;10.27;;;9.00;99.90;;;;;;5118663;27;20477;-69
2023/04/11 07:02:26;;;;;;;12.40;11.37;;;9.10;99.90;;;;;;5108857;27;20449;-68
2023/04/11 07:04:53;;;;;;;10.97;10.17;;;9.10;99.90;;;;;;5104411;27;20493;-69
2023/04/11 07:07:20;;;;;;;11.13;10.60;;;9.20;99.90;;;;;;5104839;27;20457;-69
2023/04/11 07:09:48;;;;;;;11.73;11.03;;;9.20;99.90;;;;;;5110373;27;20464;-69
2023/04/11 07:12:15;;;;;;;11.37;10.67;;;9.20;99.90;;;;;;5112161;27;20621;-69
2023/04/11 07:14:41;;;;;;;12.57;11.60;;;9.40;99.90;;;;;;5110157;27;20461;-69
2023/04/11 07:17:09;;;;;;;14.60;13.03;;;9.50;99.90;;;;;;5114280;27;20456;-70
2023/04/11 07:19:36;;;;;;;13.57;12.67;;;9.40;99.90;;;;;;5112055;27;21008;-69
2023/04/11 07:22:04;;;;;;;14.63;13.50;;;9.40;99.90;;;;;;5113248;27;20794;-70
2023/04/11 07:24:31;;;;;;;12.60;11.90;;;9.40;99.90;;;;;;5111010;28;20488;-70
2023/04/11 07:27:01;;;;;;;12.60;12.10;;;9.50;99.90;;;;;;5109815;27;20502;-70
2023/04/11 07:29:28;;;;;;;17.17;14.30;;;9.50;99.90;;;;;;5116112;27;20490;-70
2023/04/11 07:31:55;;;;;;;15.00;14.03;;;9.60;99.90;;;;;;5119262;27;20469;-69
2023/04/11 07:34:21;;;;;;;13.97;13.20;;;9.60;99.90;;;;;;5114775;27;20865;-69
2023/04/11 07:36:49;;;;;;;16.03;14.63;;;9.70;99.90;;;;;;5108330;27;20529;-69
2023/04/11 07:39:16;;;;;;;15.43;14.07;;;9.80;99.90;;;;;;5124205;27;20456;-69
2023/04/11 07:41:44;;;;;;;15.53;14.20;;;9.80;99.90;;;;;;5113126;27;20561;-70
2023/04/11 07:44:13;;;;;;;14.37;13.47;;;10.00;99.90;;;;;;5117172;27;20497;-69
2023/04/11 07:46:40;;;;;;;14.73;13.83;;;10.10;99.90;;;;;;5109836;27;20484;-69
2023/04/11 07:49:08;;;;;;;15.70;14.67;;;10.10;99.90;;;;;;5123089;27;20954;-69
2023/04/11 07:51:36;;;;;;;15.33;14.07;;;10.00;99.90;;;;;;5115294;27;20461;-69
2023/04/11 07:54:03;;;;;;;17.13;15.90;;;10.10;99.90;;;;;;5117715;27;20463;-69
2023/04/11 07:56:30;;;;;;;16.20;14.63;;;10.30;99.90;;;;;;5112602;27;20449;-70
2023/04/11 07:58:58;;;;;;;14.60;13.80;;;10.20;99.90;;;;;;5115526;27;20460;-69
2023/04/11 08:01:27;;;;;;;16.37;14.83;;;10.20;99.90;;;;;;5116355;27;20548;-70
2023/04/11 08:03:55;;;;;;;16.37;15.37;;;10.40;99.90;;;;;;5119272;27;20461;-69
2023/04/11 08:06:22;;;;;;;16.10;14.77;;;10.40;99.90;;;;;;5116160;27;20520;-70
2023/04/11 08:08:50;;;;;;;16.50;15.60;;;10.50;99.90;;;;;;5121925;27;20461;-70
2023/04/11 08:11:17;;;;;;;18.10;16.50;;;10.50;99.90;;;;;;5112647;27;20499;-71
2023/04/11 08:13:44;;;;;;;16.00;15.20;;;10.70;99.90;;;;;;5113559;27;21009;-70
2023/04/11 08:16:13;;;;;;;16.00;15.10;;;10.70;99.90;;;;;;5112944;27;20457;-69
2023/04/11 08:18:42;;;;;;;16.43;15.30;;;10.80;99.90;;;;;;5121301;27;20461;-69
2023/04/11 08:21:10;;;;;;;18.20;16.90;;;11.00;99.90;;;;;;5111749;28;20968;-70
2023/04/11 08:23:38;;;;;;;17.10;16.00;;;11.10;99.90;;;;;;5115276;27;20461;-70
2023/04/11 08:26:05;;;;;;;16.57;15.40;;;11.20;99.90;;;;;;5116840;27;20488;-69
2023/04/11 08:28:32;;;;;;;19.17;17.37;;;11.20;99.90;;;;;;5107678;27;21013;-69
2023/04/11 08:31:02;;;;;;;16.90;15.87;;;11.30;99.90;;;;;;5127429;27;20470;-70
2023/04/11 08:33:29;;;;;;;16.83;16.00;;;11.30;99.90;;;;;;5115351;27;20460;-70
2023/04/11 08:35:57;;;;;;;16.00;15.00;;;11.40;99.90;;;;;;5121662;28;20517;-71
2023/04/11 08:38:24;;;;;;;22.00;16.87;;;11.50;99.90;;;;;;5117235;27;20456;-70
2023/04/11 08:40:51;;;;;;;17.03;15.73;;;11.40;99.90;;;;;;5109414;27;20477;-70
2023/04/11 08:43:21;;;;;;;21.50;16.83;;;11.10;99.90;;;;;;5107488;28;20457;-70
2023/04/11 08:45:48;;;;;;;16.73;15.67;;;11.10;99.90;;;;;;5106724;28;20830;-70
2023/04/11 08:48:18;;;;;;;17.07;16.07;;;10.90;99.90;;;;;;5121868;28;20472;-70
2023/04/11 08:50:44;;;;;;;18.40;17.00;;;10.90;99.90;;;;;;5118322;28;20456;-70
2023/04/11 08:53:14;;;;;;;19.80;16.90;;;11.00;99.90;;;;;;5112449;28;20466;-70
2023/04/11 08:55:47;;;;;;;16.60;15.80;;;11.20;99.90;;;;;;5117568;28;20959;-69
2023/04/11 08:58:15;;;;;;;18.40;16.87;;;11.70;99.90;;;;;;5122237;28;20465;-71
2023/04/11 09:00:42;;;;;;;16.93;16.00;;;11.90;99.90;;;;;;5111919;28;21072;-72
2023/04/11 09:03:10;;;;;;;17.43;15.80;;;11.70;99.90;;;;;;5121744;28;20490;-70
2023/04/11 09:05:40;;;;;;;17.30;16.20;;;11.70;99.90;;;;;;5116082;28;21058;-70
2023/04/11 09:08:08;;;;;;;17.33;16.33;;;11.70;99.90;;;;;;5109229;28;20464;-70
2023/04/11 09:10:38;;;;;;;18.20;16.73;;;11.70;99.90;;;;;;5117047;28;20450;-72
2023/04/11 09:13:20;;;;;;;19.83;18.17;;;12.00;99.90;;;;;;5116675;28;21008;-70
2023/04/11 09:15:47;;;;;;;19.37;17.63;;;12.60;99.90;;;;;;5118477;28;20452;-71
2023/04/11 09:18:32;;;;;;;18.17;16.93;;;12.50;99.90;;;;;;5114012;28;20453;-70
2023/04/11 09:21:00;;;;;;;17.60;16.47;;;12.90;99.90;;;;;;5117726;28;20548;-70
2023/04/11 09:23:27;;;;;;;16.33;15.53;;;13.10;99.90;;;;;;5099104;28;20550;-70
2023/04/11 09:25:55;;;;;;;19.80;18.47;;;12.80;99.90;;;;;;5116893;28;20489;-69
2023/04/11 09:28:24;;;;;;;17.50;16.40;;;12.40;99.90;;;;;;5112997;28;20456;-71
2023/04/11 09:30:52;;;;;;;16.27;15.40;;;12.10;99.90;;;;;;5115977;28;20575;-70
2023/04/11 09:33:22;;;;;;;16.53;15.40;;;12.40;99.90;;;;;;5113866;28;20464;-70
2023/04/11 09:35:51;;;;;;;17.00;16.00;;;11.90;99.90;;;;;;5110766;28;20989;-69
2023/04/11 09:38:29;;;;;;;18.20;17.20;;;11.50;99.90;;;;;;5100930;28;20935;-69
2023/04/11 09:40:57;;;;;;;16.33;15.53;;;11.80;99.90;;;;;;5114709;28;20546;-71
2023/04/11 09:43:25;;;;;;;17.37;16.37;;;11.90;99.90;;;;;;5126858;28;20460;-70
2023/04/11 09:46:10;;;;;;;17.27;16.23;;;12.00;99.90;;;;;;5115200;28;20483;-69
2023/04/11 09:48:38;;;;;;;16.63;15.13;;;12.50;99.90;;;;;;5123198;27;20478;-69
2023/04/11 09:51:06;;;;;;;18.63;17.43;;;13.30;99.90;;;;;;5118212;27;20460;-69
2023/04/11 09:53:36;;;;;;;17.90;16.90;;;13.70;99.90;;;;;;5119334;27;20476;-69
2023/04/11 09:56:06;;;;;;;18.63;17.23;;;13.30;99.90;;;;;;5122736;27;21034;-70
2023/04/11 09:58:35;;;;;;;16.17;15.27;;;12.90;99.90;;;;;;5125066;27;20912;-70
2023/04/11 10:01:03;;;;;;;17.93;16.50;;;12.00;99.90;;;;;;5111113;28;20451;-69
2023/04/11 10:03:33;;;;;;;16.63;15.73;;;11.60;99.90;;;;;;5124851;27;20452;-69
2023/04/11 10:06:01;;;;;;;17.03;16.03;;;11.40;99.90;;;;;;5111067;28;20499;-71
2023/04/11 10:08:31;;;;;;;18.13;17.17;;;11.20;99.90;;;;;;5124650;27;20460;-71
2023/04/11 10:10:59;;;;;;;18.37;17.10;;;11.50;99.90;;;;;;5121459;27;20456;-69
2023/04/11 10:13:39;;;;;;;16.83;15.93;;;11.50;99.90;;;;;;5114484;27;20464;-69
2023/04/11 10:16:08;;;;;;;17.73;16.73;;;11.90;99.90;;;;;;5128124;27;20504;-69
2023/04/11 10:18:34;;;;;;;17.03;16.23;;;12.80;99.90;;;;;;5118484;27;20548;-71
2023/04/11 10:21:02;;;;;;;17.87;16.97;;;13.40;99.90;;;;;;5118742;27;21144;-71
2023/04/11 10:23:29;;;;;;;22.37;17.07;;;13.80;99.90;;;;;;5123218;27;20547;-70
2023/04/11 10:26:00;;;;;;;17.57;16.60;;;14.40;99.90;;;;;;5117820;27;20473;-69
2023/04/11 10:28:46;;;;;;;17.13;16.33;;;14.50;99.90;;;;;;5104584;27;20458;-68
2023/04/11 10:31:16;;;;;;;17.87;16.97;;;14.20;99.90;;;;;;5114281;27;20448;-70
2023/04/11 10:34:11;;;;;;;17.40;16.60;;;14.10;99.90;;;;;;5121437;27;20825;-69
2023/04/11 10:37:02;;;;;;;17.50;16.60;;;13.50;99.90;;;;;;5105911;27;20946;-68
2023/04/11 10:40:08;;;;;;;17.57;16.67;;;13.20;99.90;;;;;;5122288;27;20453;-70
2023/04/11 10:42:36;;;;;;;17.53;16.57;;;13.40;99.90;;;;;;5126597;27;20558;-69
2023/04/11 10:45:23;;;;;;;18.90;17.60;;;13.80;99.90;;;;;;5111942;27;20452;-70
2023/04/11 10:48:04;;;;;;;18.23;17.23;;;13.60;99.90;;;;;;5104298;27;20622;-69
2023/04/11 10:50:36;;;;;;;19.23;17.93;;;13.90;99.90;;;;;;5117255;27;20702;-69
2023/04/11 10:53:05;;;;;;;19.03;18.03;;;14.20;99.90;;;;;;5120946;27;20514;-70
2023/04/11 10:55:44;;;;;;;18.40;17.40;;;14.50;99.90;;;;;;5126938;27;20567;-69
2023/04/11 10:58:15;;;;;;;19.03;17.80;;;14.50;99.90;;;;;;5123401;27;20456;-70
2023/04/11 11:01:17;;;;;;;18.20;17.20;;;14.50;99.90;;;;;;5116104;27;20459;-71
2023/04/11 11:04:00;;;;;;;19.20;17.77;;;14.40;99.90;;;;;;5097330;27;20501;-69
2023/04/11 11:06:27;;;;;;;18.07;17.17;;;15.30;98.20;;;;;;5116375;27;21104;-69
2023/04/11 11:08:54;;;;;;;18.40;17.60;;;15.60;96.40;;;;;;5121489;27;20491;-70
2023/04/11 11:11:21;;;;;;;19.30;18.07;;;15.50;96.60;;;;;;5117051;27;20468;-71
2023/04/11 11:13:51;;;;;;;18.67;17.77;;;15.00;98.10;;;;;;5117342;27;20578;-71
2023/04/11 11:16:21;;;;;;;18.90;17.90;;;14.80;96.20;;;;;;5119108;27;21510;-70
2023/04/11 11:18:49;;;;;;;18.67;16.97;;;15.50;94.10;;;;;;5116783;27;20525;-70
2023/04/11 11:21:19;;;;;;;17.80;16.90;;;16.30;97.20;;;;;;5116975;27;20456;-71
2023/04/11 11:23:57;;;;;;;18.07;17.13;;;16.50;95.60;;;;;;5116445;27;20573;-71
2023/04/11 11:26:35;;;;;;;18.63;17.53;;;16.40;92.40;;;;;;5124147;27;21062;-70
2023/04/11 11:29:02;;;;;;;18.20;17.30;;;16.50;92.40;;;;;;5115966;27;20460;-70
2023/04/11 11:31:37;;;;;;;18.27;17.37;;;16.60;92.80;;;;;;5129851;27;20460;-70
2023/04/11 11:34:05;;;;;;;17.97;17.07;;;17.20;94.40;;;;;;5115926;27;20467;-70
2023/04/11 11:36:35;;;;;;;18.57;17.57;;;17.20;90.80;;;;;;5115778;27;20473;-73
2023/04/11 11:39:04;;;;;;;18.87;17.77;;;17.10;86.80;;;;;;5116363;27;20456;-71
2023/04/11 11:41:31;;;;;;;18.60;17.63;;;16.80;90.40;;;;;;5110683;27;20963;-71
2023/04/11 11:43:58;;;;;;;19.00;18.00;;;15.40;86.40;;;;;;5123818;27;20841;-71
2023/04/11 11:46:25;;;;;;;18.60;17.60;;;14.60;90.40;;;;;;5112053;27;20493;-71
2023/04/11 11:49:00;;;;;;;18.57;17.50;;;14.70;91.70;;;;;;5116090;27;20541;-71
2023/04/11 11:51:27;;;;;;;18.83;17.30;;;15.40;92.10;;;;;;5114501;27;20456;-72
2023/04/11 11:54:07;;;;;;;17.37;16.57;;;15.50;90.00;;;;;;5117498;27;20920;-72
2023/04/11 11:56:34;;;;;;;19.57;18.50;;;15.80;90.10;;;;;;5122318;27;20448;-70
2023/04/11 11:59:02;;;;;;;18.50;17.60;;;16.10;90.40;;;;;;5115540;27;21254;-72
2023/04/11 12:01:28;;;;;;;18.03;17.13;;;16.00;86.80;;;;;;5107308;28;20457;-72
2023/04/11 12:03:56;;;;;;;18.43;17.53;;;16.30;87.30;;;;;;5120202;27;20479;-70
2023/04/11 12:06:29;;;;;;;17.70;16.90;;;16.40;91.70;;;;;;5113642;27;20472;-70
2023/04/11 12:09:01;;;;;;;17.60;16.80;;;16.00;91.40;;;;;;5116461;27;20456;-71
2023/04/11 12:11:35;;;;;;;18.27;17.37;;;16.30;92.40;;;;;;5115678;27;20955;-73
2023/04/11 12:14:02;;;;;;;18.47;17.27;;;17.20;85.50;;;;;;5113969;27;21486;-70
2023/04/11 12:16:29;;;;;;;19.10;17.77;;;16.80;84.80;;;;;;5114815;27;20871;-72
2023/04/11 12:18:58;;;;;;;18.73;17.73;;;16.70;88.40;;;;;;5120464;27;20449;-69
2023/04/11 12:21:28;;;;;;;20.23;18.43;;;16.80;88.10;;;;;;5119261;27;20456;-70
2023/04/11 12:23:55;;;;;;;18.30;17.40;;;16.90;92.10;;;;;;5115571;27;20965;-71
2023/04/11 12:26:23;;;;;;;18.93;17.73;;;17.50;90.40;;;;;;5117703;27;20856;-73
2023/04/11 12:28:50;;;;;;;17.90;17.00;;;17.90;84.60;;;;;;5122088;27;20452;-70
2023/04/11 12:31:18;;;;;;;18.60;17.60;;;17.40;81.70;;;;;;5108634;27;20544;-71
2023/04/11 12:33:45;;;;;;;18.80;17.60;;;16.90;81.40;;;;;;5108551;28;20529;-72
2023/04/11 12:36:13;;;;;;;18.00;17.10;;;16.30;79.70;;;;;;5112176;27;20457;-71
2023/04/11 12:38:42;;;;;;;17.63;16.63;;;15.60;84.80;;;;;;5119881;27;20468;-73
2023/04/11 12:41:09;;;;;;;17.53;16.73;;;15.50;82.70;;;;;;5105723;27;20560;-72
2023/04/11 12:43:36;;;;;;;17.43;16.63;;;15.60;80.60;;;;;;5101952;28;20586;-71
2023/04/11 12:46:04;;;;;;;17.70;16.67;;;15.50;81.90;;;;;;5114021;28;20485;-71
2023/04/11 12:48:31;;;;;;;17.67;16.77;;;15.80;82.80;;;;;;5120994;28;20479;-71